createdAt,value
2023-01-07T00:01:38.385Z,100405.78
2023-01-07T00:04:07.032Z,100405.73
2023-01-07T00:06:35.784Z,100406.14
2023-01-07T00:09:03.053Z,100406.27
2023-01-07T00:11:31.291Z,100398.56
2023-01-07T00:13:58.905Z,100399.08
2023-01-07T00:16:28.016Z,100395.61
2023-01-07T00:18:55.639Z,100407.91
2023-01-07T00:21:23.325Z,100415.67
2023-01-07T00:23:50.541Z,100415.58
2023-01-07T00:26:18.851Z,100418.99
2023-01-07T00:28:46.659Z,100428.15
2023-01-07T00:31:20.273Z,100434.09
2023-01-07T00:34:07.488Z,100434.16
2023-01-07T00:37:12.309Z,100437.93
2023-01-07T00:39:40.636Z,100435.38
2023-01-07T00:42:26.816Z,100440.58
2023-01-07T00:44:53.540Z,100448.06
2023-01-07T00:47:20.205Z,100447.86
2023-01-07T00:49:47.134Z,100444.41
2023-01-07T00:52:13.867Z,100446.56
2023-01-07T00:54:40.557Z,100441.58
2023-01-07T00:57:10.443Z,100455.11
2023-01-07T00:59:37.598Z,100452.04
2023-01-07T01:02:04.357Z,100455.33
2023-01-07T01:04:32.157Z,100459.34
2023-01-07T01:06:58.812Z,100462.86
2023-01-07T01:09:26.441Z,100458.79
2023-01-07T01:11:53.191Z,100455.17
2023-01-07T01:14:19.799Z,100451.34
2023-01-07T01:16:46.717Z,100448.16
2023-01-07T01:19:13.332Z,100444.02
2023-01-07T01:21:43.074Z,100453.56
2023-01-07T01:24:10.267Z,100454.96
2023-01-07T01:26:37.092Z,100451.11
2023-01-07T01:29:03.779Z,100452.10
2023-01-07T01:31:31.694Z,100452.95
2023-01-07T01:33:59.822Z,100453.07
2023-01-07T01:36:26.611Z,100454.69
2023-01-07T01:38:55.414Z,100455.71
2023-01-07T01:41:22.229Z,100463.43
2023-01-07T01:43:50.596Z,100461.08
2023-01-07T01:46:22.368Z,100451.28
2023-01-07T01:48:52.807Z,100451.50
2023-01-07T01:51:20.819Z,100451.27
2023-01-07T01:53:47.614Z,100455.11
2023-01-07T01:56:16.467Z,100454.96
2023-01-07T01:58:48.600Z,100447.99
2023-01-07T02:01:15.456Z,100437.58
2023-01-07T02:03:42.812Z,100436.61
2023-01-07T02:06:21.645Z,100440.58
2023-01-07T02:08:48.433Z,100438.79
2023-01-07T02:11:40.096Z,100435.52
2023-01-07T02:14:31.906Z,100429.49
2023-01-07T02:17:17.522Z,100433.92
2023-01-07T02:20:03.869Z,100442.38
2023-01-07T02:22:30.651Z,100434.13
2023-01-07T02:24:57.247Z,100438.20
2023-01-07T02:27:55.107Z,100438.33
2023-01-07T02:30:46.876Z,100444.71
2023-01-07T02:33:22.549Z,100446.73
2023-01-07T02:36:00.299Z,100449.02
2023-01-07T02:38:56.035Z,100446.13
2023-01-07T02:41:37.467Z,100443.77
2023-01-07T02:44:12.310Z,100446.62
2023-01-07T02:46:45.103Z,100450.91
2023-01-07T02:49:15.204Z,100448.86
2023-01-07T02:51:42.317Z,100457.61
2023-01-07T02:54:29.298Z,100458.07
2023-01-07T02:57:24.524Z,100460.53
2023-01-07T03:00:03.348Z,100462.84
2023-01-07T03:02:42.497Z,100462.98
2023-01-07T03:05:17.408Z,100463.65
2023-01-07T03:10:14.330Z,100459.61
2023-01-07T03:12:45.866Z,100459.73
2023-01-07T03:15:20.755Z,100463.50
2023-01-07T03:17:58.148Z,100463.55
2023-01-07T03:20:25.327Z,100463.70
2023-01-07T03:22:51.951Z,100462.74
2023-01-07T03:25:19.906Z,100459.73
2023-01-07T03:27:46.485Z,100457.33
2023-01-07T03:30:13.976Z,100461.41
2023-01-07T03:33:00.789Z,100462.15
2023-01-07T03:35:27.994Z,100468.48
2023-01-07T03:37:54.508Z,100469.52
2023-01-07T03:40:21.032Z,100466.47
2023-01-07T03:42:48.774Z,100464.04
2023-01-07T03:45:23.294Z,100468.69
2023-01-07T03:47:52.903Z,100467.52
2023-01-07T03:50:19.948Z,100467.52
2023-01-07T03:52:50.484Z,100477.11
2023-01-07T03:55:18.387Z,100478.15
2023-01-07T03:57:45.460Z,100480.48
2023-01-07T04:00:12.495Z,100479.14
2023-01-07T04:02:43.681Z,100477.54
2023-01-07T04:05:17.320Z,100477.47
2023-01-07T04:07:44.090Z,100478.55
2023-01-07T04:10:10.700Z,100475.89
2023-01-07T04:12:37.264Z,100475.42
2023-01-07T04:15:04.397Z,100472.56
2023-01-07T04:17:33.094Z,100473.71
2023-01-07T04:20:00.430Z,100477.57
2023-01-07T04:22:27.055Z,100479.40
2023-01-07T04:24:57.438Z,100476.16
2023-01-07T04:27:24.200Z,100478.02
2023-01-07T04:29:51.585Z,100475.45
2023-01-07T04:32:18.191Z,100479.80
2023-01-07T04:34:44.792Z,100478.14
2023-01-07T04:37:11.734Z,100478.12
2023-01-07T04:39:38.407Z,100473.56
2023-01-07T04:42:05.419Z,100484.40
2023-01-07T04:44:32.488Z,100476.34
2023-01-07T04:46:59.005Z,100485.80
2023-01-07T04:49:25.773Z,100486.64
2023-01-07T04:51:52.662Z,100486.30
2023-01-07T04:54:19.273Z,100483.98
2023-01-07T04:56:45.852Z,100484.34
2023-01-07T04:59:12.918Z,100487.31
2023-01-07T05:01:40.201Z,100488.09
2023-01-07T05:04:07.648Z,100490.25
2023-01-07T05:06:36.332Z,100484.88
2023-01-07T05:09:03.035Z,100484.79
2023-01-07T05:11:30.106Z,100488.74
2023-01-07T05:14:01.370Z,100491.07
2023-01-07T05:16:29.912Z,100493.17
2023-01-07T05:18:59.219Z,100500.70
2023-01-07T05:21:26.419Z,100506.10
2023-01-07T05:23:53.256Z,100507.71
2023-01-07T05:26:21.799Z,100511.58
2023-01-07T05:28:49.015Z,100513.36
2023-01-07T05:31:15.929Z,100513.16
2023-01-07T05:33:43.389Z,100515.30
2023-01-07T05:36:10.688Z,100522.98
2023-01-07T05:38:37.276Z,100532.71
2023-01-07T05:41:04.426Z,100531.70
2023-01-07T05:43:31.559Z,100532.25
2023-01-07T05:45:58.576Z,100521.27
2023-01-07T05:48:25.175Z,100533.69
2023-01-07T05:50:51.738Z,100533.33
2023-01-07T05:53:18.676Z,100537.13
2023-01-07T05:55:45.343Z,100538.98
2023-01-07T05:58:12.081Z,100539.47
2023-01-07T06:00:38.710Z,100543.54
2023-01-07T06:03:05.450Z,100548.32
2023-01-07T06:05:36.034Z,100548.38
2023-01-07T06:08:02.754Z,100554.80
2023-01-07T06:10:29.611Z,100556.11
2023-01-07T06:12:56.223Z,100556.65
2023-01-07T06:15:22.699Z,100560.77
2023-01-07T06:17:49.367Z,100559.67
2023-01-07T06:20:15.944Z,100564.94
2023-01-07T06:22:42.625Z,100559.60
2023-01-07T06:25:10.904Z,100562.95
2023-01-07T06:27:37.755Z,100572.00
2023-01-07T06:30:04.643Z,100571.88
2023-01-07T06:32:31.528Z,100567.09
2023-01-07T06:34:58.113Z,100570.59
2023-01-07T06:37:24.649Z,100576.31
2023-01-07T06:39:51.350Z,100584.58
2023-01-07T06:42:17.895Z,100588.80
2023-01-07T06:44:44.575Z,100592.92
2023-01-07T06:47:11.408Z,100597.14
2023-01-07T06:49:38.260Z,100593.75
2023-01-07T06:52:04.867Z,100605.80
2023-01-07T06:54:31.538Z,100606.09
2023-01-07T06:56:58.166Z,100608.15
2023-01-07T06:59:24.894Z,100610.14
2023-01-07T07:01:51.632Z,100614.04
2023-01-07T07:04:18.416Z,100605.64
2023-01-07T07:06:44.981Z,100614.79
2023-01-07T07:09:11.569Z,100611.55
2023-01-07T07:11:40.476Z,100632.16
2023-01-07T07:14:07.069Z,100632.84
2023-01-07T07:16:34.333Z,100628.70
2023-01-07T07:19:00.980Z,100631.55
2023-01-07T07:21:27.623Z,100637.00
2023-01-07T07:23:54.198Z,100638.20
2023-01-07T07:26:20.740Z,100639.80
2023-01-07T07:28:47.215Z,100647.90
2023-01-07T07:31:13.727Z,100644.25
2023-01-07T07:33:40.347Z,100655.55
2023-01-07T07:36:07.085Z,100656.85
2023-01-07T07:38:33.795Z,100655.14
2023-01-07T07:41:02.068Z,100655.84
2023-01-07T07:43:28.698Z,100656.95
2023-01-07T07:45:55.295Z,100655.77
2023-01-07T07:48:22.262Z,100653.77
2023-01-07T07:50:51.917Z,100653.21
2023-01-07T07:53:18.935Z,100653.55
2023-01-07T07:55:45.942Z,100659.31
2023-01-07T07:58:12.495Z,100662.30
2023-01-07T08:00:39.013Z,100664.88
2023-01-07T08:03:05.762Z,100668.54
2023-01-07T08:05:32.517Z,100671.59
2023-01-07T08:07:59.220Z,100671.65
2023-01-07T08:10:25.987Z,100671.63
2023-01-07T08:12:53.421Z,100674.80
2023-01-07T08:15:20.963Z,100671.54
2023-01-07T08:17:47.514Z,100675.02
2023-01-07T08:20:14.129Z,100675.93
2023-01-07T08:22:42.768Z,100676.41
2023-01-07T08:25:11.968Z,100679.13
2023-01-07T08:27:38.488Z,100679.72
2023-01-07T08:30:05.407Z,100680.43
2023-01-07T08:32:32.336Z,100681.16
2023-01-07T08:34:58.937Z,100681.23
2023-01-07T08:37:25.489Z,100684.60
2023-01-07T08:39:51.971Z,100678.51
2023-01-07T08:42:18.454Z,100680.76
2023-01-07T08:44:44.955Z,100677.08
2023-01-07T08:47:12.267Z,100675.52
2023-01-07T08:49:38.954Z,100675.11
2023-01-07T08:52:05.546Z,100675.42
2023-01-07T08:54:32.051Z,100668.72
2023-01-07T08:56:58.613Z,100667.52
2023-01-07T08:59:25.109Z,100664.79
2023-01-07T09:01:51.841Z,100666.06
2023-01-07T09:04:19.243Z,100661.10
2023-01-07T09:06:46.539Z,100658.93
2023-01-07T09:09:15.898Z,100653.60
2023-01-07T09:11:42.919Z,100650.05
2023-01-07T09:14:09.564Z,100647.97
2023-01-07T09:16:36.133Z,100647.98
2023-01-07T09:19:02.730Z,100645.91
2023-01-07T09:21:29.447Z,100648.83
2023-01-07T09:23:55.963Z,100647.71
2023-01-07T09:26:22.554Z,100651.42
2023-01-07T09:28:49.097Z,100653.89
2023-01-07T09:31:15.633Z,100654.56
2023-01-07T09:33:42.560Z,100650.30
2023-01-07T09:36:09.179Z,100654.30
2023-01-07T09:38:36.332Z,100656.59
2023-01-07T09:41:03.027Z,100653.74
2023-01-07T09:44:01.052Z,100652.12
2023-01-07T09:46:28.830Z,100654.71
2023-01-07T09:48:57.333Z,100651.83
2023-01-07T09:51:25.490Z,100653.83
2023-01-07T09:53:53.681Z,100648.67
2023-01-07T09:56:23.458Z,100651.02
2023-01-07T09:58:49.947Z,100657.05
2023-01-07T10:01:20.051Z,100658.95
2023-01-07T10:03:49.619Z,100658.48
2023-01-07T10:07:13.614Z,100661.17
2023-01-07T10:09:47.004Z,100657.13
2023-01-07T10:12:22.767Z,100653.31
2023-01-07T10:14:59.477Z,100651.95
2023-01-07T10:17:37.879Z,100654.43
2023-01-07T10:20:26.091Z,100657.02
2023-01-07T10:23:03.448Z,100659.42
2023-01-07T10:25:35.539Z,100661.61
2023-01-07T10:28:06.959Z,100661.84
2023-01-07T10:30:40.965Z,100660.66
2023-01-07T10:33:28.362Z,100664.19
2023-01-07T10:36:30.610Z,100668.30
2023-01-07T10:39:00.259Z,100662.86
2023-01-07T10:41:56.022Z,100660.48
2023-01-07T10:44:25.633Z,100664.91
2023-01-07T10:47:16.033Z,100663.84
2023-01-07T10:49:50.364Z,100661.71
2023-01-07T10:52:26.243Z,100661.80
2023-01-07T10:55:29.719Z,100667.30
2023-01-07T10:57:56.476Z,100668.17
2023-01-07T11:00:26.565Z,100668.58
2023-01-07T11:02:56.177Z,100667.90
2023-01-07T11:05:25.370Z,100665.89
2023-01-07T11:07:53.887Z,100661.36
2023-01-07T11:10:22.303Z,100661.13
2023-01-07T11:12:49.752Z,100653.86
2023-01-07T11:15:35.004Z,100657.42
2023-01-07T11:18:06.623Z,100661.30
2023-01-07T11:20:53.223Z,100665.27
2023-01-07T11:23:35.693Z,100663.96
2023-01-07T11:26:06.968Z,100660.38
2023-01-07T11:28:34.073Z,100656.94
2023-01-07T11:31:00.681Z,100656.71
2023-01-07T11:34:01.474Z,100663.33
2023-01-07T11:36:49.807Z,100665.45
2023-01-07T11:39:24.117Z,100668.75
2023-01-07T11:41:58.945Z,100674.13
2023-01-07T11:44:25.905Z,100675.10
2023-01-07T11:46:52.610Z,100678.35
2023-01-07T11:49:25.223Z,100679.27
2023-01-07T11:51:51.787Z,100678.87
2023-01-07T11:54:21.943Z,100672.27
2023-01-07T11:56:48.599Z,100669.67
2023-01-07T11:59:25.188Z,100672.56
2023-01-07T12:01:53.695Z,100672.56
2023-01-07T12:04:23.045Z,100674.02
2023-01-07T12:06:51.460Z,100673.42
2023-01-07T12:09:30.836Z,100676.83
2023-01-07T12:12:31.036Z,100676.45
2023-01-07T12:15:23.250Z,100672.75
2023-01-07T12:18:06.960Z,100671.59
2023-01-07T12:21:00.872Z,100673.94
2023-01-07T12:23:36.543Z,100676.33
2023-01-07T12:26:05.924Z,100676.37
2023-01-07T12:28:44.679Z,100674.63
2023-01-07T12:31:29.883Z,100674.69
2023-01-07T12:34:08.155Z,100678.32
2023-01-07T12:36:36.048Z,100678.64
2023-01-07T12:39:07.083Z,100677.34
2023-01-07T12:41:40.293Z,100679.91
2023-01-07T12:44:20.569Z,100682.10
2023-01-07T12:47:31.180Z,100676.77
2023-01-07T12:49:59.344Z,100672.00
2023-01-07T12:52:43.480Z,100674.88
2023-01-07T12:55:19.956Z,100675.50
2023-01-07T12:58:27.739Z,100669.37
2023-01-07T13:00:55.580Z,100678.61
2023-01-07T13:03:24.673Z,100685.93
2023-01-07T13:05:56.213Z,100685.48
2023-01-07T13:08:31.972Z,100683.19
2023-01-07T13:11:12.134Z,100681.91
2023-01-07T13:13:41.267Z,100689.93
2023-01-07T13:16:11.260Z,100691.14
2023-01-07T13:18:38.287Z,100692.66
2023-01-07T13:21:14.665Z,100693.42
2023-01-07T13:24:11.506Z,100689.52
2023-01-07T13:27:14.951Z,100686.69
2023-01-07T13:29:50.389Z,100685.59
2023-01-07T13:32:38.398Z,100691.02
2023-01-07T13:35:14.855Z,100697.49
2023-01-07T13:37:44.442Z,100691.20
2023-01-07T13:40:23.077Z,100694.04
2023-01-07T13:43:21.195Z,100702.19
2023-01-07T13:46:07.119Z,100706.46
2023-01-07T13:48:37.707Z,100714.25
2023-01-07T13:51:05.257Z,100716.77
2023-01-07T13:53:53.379Z,100716.52
2023-01-07T13:56:19.961Z,100718.25
2023-01-07T13:58:54.817Z,100724.63
2023-01-07T14:01:24.761Z,100730.88
2023-01-07T14:04:02.611Z,100732.08
2023-01-07T14:06:30.328Z,100729.66
2023-01-07T14:09:06.803Z,100725.52
2023-01-07T14:11:33.341Z,100719.27
2023-01-07T14:14:39.708Z,100727.31
2023-01-07T14:17:28.143Z,100727.95
2023-01-07T14:20:07.813Z,100726.70
2023-01-07T14:22:53.372Z,100727.98
2023-01-07T14:25:41.719Z,100738.18
2023-01-07T14:28:42.526Z,100745.13
2023-01-07T14:31:25.378Z,100745.23
2023-01-07T14:33:54.773Z,100742.88
2023-01-07T14:36:21.236Z,100734.42
2023-01-07T14:38:57.873Z,100741.73
2023-01-07T14:41:24.664Z,100750.95
2023-01-07T14:43:59.547Z,100753.91
2023-01-07T14:46:26.043Z,100753.59
2023-01-07T14:49:01.585Z,100756.30
2023-01-07T14:51:40.408Z,100762.41
2023-01-07T14:54:27.633Z,100771.11
2023-01-07T14:57:09.673Z,100774.54
2023-01-07T15:00:01.596Z,100775.41
2023-01-07T15:03:05.833Z,100774.61
2023-01-07T15:05:50.876Z,100780.17
2023-01-07T15:08:37.355Z,100777.55
2023-01-07T15:11:23.217Z,100772.52
2023-01-07T15:14:14.535Z,100768.91
2023-01-07T15:16:41.108Z,100774.84
2023-01-07T15:19:07.725Z,100773.65
2023-01-07T15:21:48.924Z,100778.00
2023-01-07T15:27:06.896Z,100778.41
2023-01-07T15:30:07.800Z,100784.89
2023-01-07T15:32:50.085Z,100788.92
2023-01-07T15:35:22.094Z,100792.33
2023-01-07T15:37:49.730Z,100793.04
2023-01-07T15:40:18.234Z,100792.92
2023-01-07T15:42:46.209Z,100792.48
2023-01-07T15:45:17.760Z,100788.30
2023-01-07T15:47:44.919Z,100791.27
2023-01-07T15:50:21.529Z,100792.85
2023-01-07T15:53:03.770Z,100793.19
2023-01-07T15:55:36.123Z,100791.36
2023-01-07T15:58:07.129Z,100791.79
2023-01-07T16:00:34.901Z,100791.92
2023-01-07T16:03:02.543Z,100793.28
2023-01-07T16:05:29.315Z,100790.46
2023-01-07T16:07:59.612Z,100790.82
2023-01-07T16:10:32.577Z,100788.44
2023-01-07T16:13:01.369Z,100789.64
2023-01-07T16:15:29.314Z,100788.05
2023-01-07T16:18:16.709Z,100789.18
2023-01-07T16:20:51.067Z,100788.40
2023-01-07T16:23:22.873Z,100788.11
2023-01-07T16:25:55.816Z,100780.10
2023-01-07T16:28:26.638Z,100781.16
2023-01-07T16:30:53.377Z,100774.52
2023-01-07T16:33:21.661Z,100770.83
2023-01-07T16:35:48.808Z,100768.87
2023-01-07T16:38:16.639Z,100774.26
2023-01-07T16:40:43.391Z,100770.77
2023-01-07T16:43:28.807Z,100773.64
2023-01-07T16:46:28.667Z,100774.27
2023-01-07T16:49:29.666Z,100773.48
2023-01-07T16:52:11.151Z,100775.02
2023-01-07T16:54:40.417Z,100779.15
2023-01-07T16:57:10.090Z,100773.15
2023-01-07T16:59:42.831Z,100772.48
2023-01-07T17:02:40.660Z,100765.99
2023-01-07T17:05:27.563Z,100767.27
2023-01-07T17:07:57.726Z,100765.18
2023-01-07T17:10:32.402Z,100767.27
2023-01-07T17:13:03.131Z,100766.55
2023-01-07T17:15:32.559Z,100768.43
2023-01-07T17:18:11.189Z,100763.36
2023-01-07T17:20:46.650Z,100765.12
2023-01-07T17:23:25.529Z,100770.45
2023-01-07T17:26:10.677Z,100776.14
2023-01-07T17:28:43.644Z,100779.30
2023-01-07T17:31:10.448Z,100771.52
2023-01-07T17:33:37.103Z,100764.57
2023-01-07T17:36:04.037Z,100769.93
2023-01-07T17:38:30.850Z,100772.45
2023-01-07T17:40:57.460Z,100768.27
2023-01-07T17:43:34.495Z,100764.52
2023-01-07T17:46:02.167Z,100768.75
2023-01-07T17:48:29.062Z,100771.23
2023-01-07T17:50:57.173Z,100776.36
2023-01-07T17:53:28.578Z,100775.71
2023-01-07T17:55:55.342Z,100773.92
2023-01-07T17:58:28.833Z,100778.70
2023-01-07T18:00:55.936Z,100783.06
2023-01-07T18:03:25.535Z,100780.02
2023-01-07T18:05:52.498Z,100784.12
2023-01-07T18:08:19.422Z,100784.77
2023-01-07T18:11:05.825Z,100794.60
2023-01-07T18:13:32.747Z,100801.99
2023-01-07T18:15:59.617Z,100809.79
2023-01-07T18:18:28.898Z,100813.48
2023-01-07T18:20:56.521Z,100816.35
2023-01-07T18:23:23.459Z,100812.57
2023-01-07T18:25:50.312Z,100805.25
2023-01-07T18:28:17.604Z,100798.42
2023-01-07T18:30:44.326Z,100794.98
2023-01-07T18:33:11.220Z,100797.98
2023-01-07T18:35:40.675Z,100801.27
2023-01-07T18:38:13.881Z,100805.84
2023-01-07T18:40:40.983Z,100813.75
2023-01-07T18:43:07.709Z,100813.14
2023-01-07T18:45:34.522Z,100818.23
2023-01-07T18:48:01.311Z,100816.34
2023-01-07T18:50:28.034Z,100813.73
2023-01-07T18:52:54.700Z,100808.44
2023-01-07T18:55:21.911Z,100811.18
2023-01-07T18:57:48.833Z,100814.62
2023-01-07T19:00:16.111Z,100821.11
2023-01-07T19:02:43.030Z,100823.96
2023-01-07T19:05:09.939Z,100821.32
2023-01-07T19:07:36.929Z,100819.59
2023-01-07T19:10:04.920Z,100819.39
2023-01-07T19:12:31.625Z,100815.79
2023-01-07T19:14:58.320Z,100816.32
2023-01-07T19:17:26.012Z,100817.89
2023-01-07T19:19:52.743Z,100823.30
2023-01-07T19:22:20.841Z,100826.12
2023-01-07T19:24:47.791Z,100836.00
2023-01-07T19:27:14.407Z,100825.07
2023-01-07T19:29:42.250Z,100832.73
2023-01-07T19:32:09.104Z,100836.58
2023-01-07T19:34:35.828Z,100841.67
2023-01-07T19:37:02.591Z,100846.20
2023-01-07T19:39:29.259Z,100844.01
2023-01-07T19:41:56.028Z,100847.09
2023-01-07T19:44:22.641Z,100847.46
2023-01-07T19:46:49.499Z,100847.65
2023-01-07T19:49:16.358Z,100846.17
2023-01-07T19:51:43.273Z,100849.74
2023-01-07T19:54:15.933Z,100842.65
2023-01-07T19:56:43.693Z,100843.39
2023-01-07T19:59:11.081Z,100849.30
2023-01-07T20:01:39.125Z,100850.20
2023-01-07T20:04:07.165Z,100853.71
2023-01-07T20:06:35.557Z,100855.89
2023-01-07T20:09:08.462Z,100851.84
2023-01-07T20:11:35.333Z,100846.00
2023-01-07T20:14:02.295Z,100845.48
2023-01-07T20:16:29.025Z,100854.42
2023-01-07T20:18:56.046Z,100852.16
2023-01-07T20:21:25.414Z,100857.30
2023-01-07T20:23:52.390Z,100856.50
2023-01-07T20:26:30.084Z,100854.44
2023-01-07T20:28:57.167Z,100857.83
2023-01-07T20:31:24.611Z,100862.79
2023-01-07T20:33:51.742Z,100866.70
2023-01-07T20:36:20.107Z,100867.80
2023-01-07T20:38:47.020Z,100867.34
2023-01-07T20:41:19.094Z,100862.42
2023-01-07T20:43:50.462Z,100860.96
2023-01-07T20:46:17.310Z,100863.73
2023-01-07T20:48:44.933Z,100866.26
2023-01-07T20:51:12.085Z,100867.77
2023-01-07T20:53:38.890Z,100864.72
2023-01-07T20:56:05.694Z,100867.80
2023-01-07T20:58:33.725Z,100868.33
2023-01-07T21:01:09.225Z,100869.23
2023-01-07T21:03:36.544Z,100869.71
2023-01-07T21:06:03.379Z,100872.59
2023-01-07T21:08:30.272Z,100867.64
2023-01-07T21:10:57.268Z,100866.67
2023-01-07T21:13:24.052Z,100863.73
2023-01-07T21:15:50.968Z,100866.09
2023-01-07T21:18:17.862Z,100866.31
2023-01-07T21:20:44.981Z,100863.38
2023-01-07T21:23:11.722Z,100868.64
2023-01-07T21:25:38.403Z,100866.55
2023-01-07T21:28:06.625Z,100862.86
2023-01-07T21:30:33.809Z,100860.73
2023-01-07T21:33:00.601Z,100863.14
2023-01-07T21:35:27.260Z,100861.78
2023-01-07T21:37:54.760Z,100864.84
2023-01-07T21:40:22.065Z,100865.22
2023-01-07T21:42:49.014Z,100869.34
2023-01-07T21:45:15.858Z,100870.21
2023-01-07T21:47:42.670Z,100870.76
2023-01-07T21:50:09.431Z,100871.39
2023-01-07T21:52:36.194Z,100867.02
2023-01-07T21:55:03.142Z,100861.41
2023-01-07T21:57:29.887Z,100863.01
2023-01-07T21:59:56.499Z,100859.00
2023-01-07T22:02:23.209Z,100855.16
2023-01-07T22:04:50.411Z,100856.38
2023-01-07T22:07:17.787Z,100855.64
2023-01-07T22:09:44.548Z,100852.85
2023-01-07T22:12:11.322Z,100847.95
2023-01-07T22:14:38.766Z,100848.98
2023-01-07T22:17:05.855Z,100850.19
2023-01-07T22:19:32.650Z,100850.79
2023-01-07T22:21:59.302Z,100847.30
2023-01-07T22:24:26.037Z,100848.56
2023-01-07T22:26:53.742Z,100842.39
2023-01-07T22:29:20.533Z,100846.27
2023-01-07T22:31:49.683Z,100846.83
2023-01-07T22:34:16.475Z,100842.33
2023-01-07T22:36:49.252Z,100839.52
2023-01-07T22:39:18.740Z,100838.43
2023-01-07T22:41:45.471Z,100838.34
2023-01-07T22:44:14.683Z,100837.48
2023-01-07T22:46:41.878Z,100835.35
2023-01-07T22:49:08.566Z,100831.15
2023-01-07T22:51:38.828Z,100828.62
2023-01-07T22:54:05.748Z,100827.92
2023-01-07T22:56:32.475Z,100832.59
2023-01-07T22:58:59.206Z,100829.73
2023-01-07T23:01:25.940Z,100836.73
2023-01-07T23:03:52.724Z,100839.45
2023-01-07T23:06:19.513Z,100838.65
2023-01-07T23:08:46.214Z,100835.73
2023-01-07T23:11:33.037Z,100826.51
2023-01-07T23:13:59.928Z,100833.09
2023-01-07T23:16:26.870Z,100832.81
2023-01-07T23:18:53.694Z,100831.79
2023-01-07T23:21:20.347Z,100832.35
2023-01-07T23:23:47.066Z,100836.48
2023-01-07T23:26:14.571Z,100833.38
2023-01-07T23:28:41.427Z,100834.15
2023-01-07T23:31:10.125Z,100831.68
2023-01-07T23:33:36.897Z,100828.09
2023-01-07T23:36:07.121Z,100834.04
2023-01-07T23:38:34.225Z,100837.54
2023-01-07T23:41:05.862Z,100835.42
2023-01-07T23:43:32.569Z,100839.22
2023-01-07T23:46:00.059Z,100838.54
2023-01-07T23:48:27.537Z,100840.08
2023-01-07T23:50:54.632Z,100833.77
2023-01-07T23:53:21.531Z,100839.02
2023-01-07T23:55:51.705Z,100829.21
2023-01-07T23:58:18.915Z,100835.75
